VOZ091 YMML-WADD
Flight info
| Callsign | VOZ091 |
|---|---|
| Flight time | N/A |
| Altitude | 32000 |
| Route | PEDNI H345 AD A585 FRAZA/N0455F340 A585 PD/N0460F360 G578 LIPRA |
| Aircraft | B738/M-SDE2E3FGHIRWXY/LB1 |
Departure
| Time | N/A |
|---|---|
| Airport | Melbourne Airport (YMML) |
Arrival
| Time | 2026-05-04 07:33 |
|---|---|
| Airport | Denpasar I Gusti Ngurah Rai International Airport (WADD) |
| Time | Latitude | Longitude | Altitude | Speed | Heading |
|---|---|---|---|---|---|
| 2026-05-04 06:50 | -11.73004 | 116.01013 | 35906 ft | 459 kts | 340° |
| 2026-05-04 06:51 | -11.66882 | 115.99136 | 35903 ft | 460 kts | 340° |
| 2026-05-04 06:51 | -11.60755 | 115.97259 | 35903 ft | 460 kts | 340° |
| 2026-05-04 06:52 | -11.54632 | 115.95383 | 35902 ft | 460 kts | 340° |
| 2026-05-04 06:52 | -11.49540 | 115.93823 | 35898 ft | 459 kts | 340° |
| 2026-05-04 06:53 | -11.43380 | 115.91936 | 35334 ft | 465 kts | 340° |
| 2026-05-04 06:53 | -11.40306 | 115.90996 | 34928 ft | 460 kts | 340° |
| 2026-05-04 06:53 | -11.37251 | 115.90063 | 34496 ft | 456 kts | 340° |
| 2026-05-04 06:54 | -11.34223 | 115.89137 | 34049 ft | 453 kts | 340° |
| 2026-05-04 06:54 | -11.31208 | 115.88215 | 33579 ft | 450 kts | 340° |
| 2026-05-04 06:54 | -11.28219 | 115.87301 | 33128 ft | 447 kts | 340° |
| 2026-05-04 06:54 | -11.25254 | 115.86394 | 32689 ft | 443 kts | 340° |
| 2026-05-04 06:55 | -11.22318 | 115.85496 | 32258 ft | 439 kts | 341° |
| 2026-05-04 06:55 | -11.19401 | 115.84605 | 31840 ft | 436 kts | 341° |
| 2026-05-04 06:55 | -11.16511 | 115.83724 | 31428 ft | 432 kts | 341° |
| 2026-05-04 06:55 | -11.13625 | 115.82885 | 31022 ft | 429 kts | 342° |
| 2026-05-04 06:56 | -11.10756 | 115.82082 | 30620 ft | 426 kts | 342° |
| 2026-05-04 06:57 | -10.91224 | 115.76635 | 27611 ft | 404 kts | 342° |
| 2026-05-04 06:58 | -10.88521 | 115.75877 | 27206 ft | 401 kts | 342° |
| 2026-05-04 06:58 | -10.85850 | 115.75126 | 26801 ft | 398 kts | 343° |
| 2026-05-04 06:58 | -10.83190 | 115.74380 | 26402 ft | 395 kts | 343° |
| 2026-05-04 06:58 | -10.80550 | 115.73639 | 26009 ft | 392 kts | 342° |
| 2026-05-04 06:59 | -10.77929 | 115.72904 | 25612 ft | 390 kts | 343° |
| 2026-05-04 06:59 | -10.75324 | 115.72173 | 25218 ft | 388 kts | 342° |
| 2026-05-04 06:59 | -10.72729 | 115.71445 | 24817 ft | 386 kts | 342° |
| 2026-05-04 06:59 | -10.70148 | 115.70721 | 24412 ft | 385 kts | 342° |
| 2026-05-04 07:01 | -10.54718 | 115.62064 | 22138 ft | 357 kts | 312° |
| 2026-05-04 07:01 | -10.52993 | 115.60219 | 21946 ft | 362 kts | 312° |
| 2026-05-04 07:02 | -10.51265 | 115.58383 | 21717 ft | 366 kts | 313° |
| 2026-05-04 07:02 | -10.49501 | 115.56521 | 21502 ft | 364 kts | 313° |
| 2026-05-04 07:02 | -10.47743 | 115.54680 | 21278 ft | 363 kts | 313° |
| 2026-05-04 07:02 | -10.45987 | 115.52847 | 21056 ft | 361 kts | 313° |
| 2026-05-04 07:03 | -10.44234 | 115.51022 | 20839 ft | 360 kts | 313° |
| 2026-05-04 07:03 | -10.42486 | 115.49206 | 20626 ft | 359 kts | 313° |
| 2026-05-04 07:03 | -10.40746 | 115.47399 | 20418 ft | 358 kts | 313° |
| 2026-05-04 07:03 | -10.39007 | 115.45595 | 20199 ft | 357 kts | 313° |
| 2026-05-04 07:04 | -10.37275 | 115.43798 | 19993 ft | 355 kts | 312° |
| 2026-05-04 07:04 | -10.35538 | 115.41995 | 19781 ft | 362 kts | 313° |
| 2026-05-04 07:04 | -10.33720 | 115.40107 | 19553 ft | 385 kts | 313° |
| 2026-05-04 07:04 | -10.31804 | 115.38117 | 19319 ft | 403 kts | 313° |
| 2026-05-04 07:05 | -10.29850 | 115.36091 | 19049 ft | 399 kts | 313° |
| 2026-05-04 07:05 | -10.27906 | 115.34078 | 18823 ft | 400 kts | 313° |
| 2026-05-04 07:05 | -10.25954 | 115.32056 | 18580 ft | 402 kts | 313° |
| 2026-05-04 07:05 | -10.23993 | 115.30025 | 18343 ft | 403 kts | 313° |
| 2026-05-04 07:06 | -10.20068 | 115.25960 | 17801 ft | 402 kts | 313° |
| 2026-05-04 07:06 | -10.18112 | 115.23934 | 17549 ft | 401 kts | 313° |
| 2026-05-04 07:06 | -10.16161 | 115.21915 | 17309 ft | 401 kts | 313° |
| 2026-05-04 07:07 | -10.14169 | 115.19850 | 17084 ft | 417 kts | 313° |
| 2026-05-04 07:08 | -9.99903 | 115.05321 | 15289 ft | 413 kts | 325° |
| 2026-05-04 07:09 | -9.97295 | 115.04105 | 15058 ft | 415 kts | 345° |
| 2026-05-04 07:09 | -9.94451 | 115.03568 | 14837 ft | 416 kts | 351° |
| 2026-05-04 07:09 | -9.91590 | 115.03128 | 14563 ft | 417 kts | 351° |
| 2026-05-04 07:09 | -9.88715 | 115.02696 | 14317 ft | 417 kts | 351° |
| 2026-05-04 07:10 | -9.85847 | 115.02259 | 14077 ft | 417 kts | 351° |
| 2026-05-04 07:10 | -9.82982 | 115.01810 | 13824 ft | 416 kts | 351° |
| 2026-05-04 07:12 | -9.63485 | 114.98637 | 12046 ft | 399 kts | 352° |
| 2026-05-04 07:12 | -9.60750 | 114.98190 | 11834 ft | 398 kts | 352° |
| 2026-05-04 07:12 | -9.58027 | 114.97745 | 11656 ft | 396 kts | 352° |
| 2026-05-04 07:12 | -9.55310 | 114.97301 | 11432 ft | 395 kts | 352° |
| 2026-05-04 07:13 | -9.52602 | 114.96859 | 11200 ft | 394 kts | 352° |
| 2026-05-04 07:13 | -9.49897 | 114.96417 | 10971 ft | 393 kts | 352° |
| 2026-05-04 07:13 | -9.47198 | 114.95977 | 10738 ft | 392 kts | 352° |
| 2026-05-04 07:14 | -9.36498 | 114.94363 | 9546 ft | 386 kts | 358° |
| 2026-05-04 07:14 | -9.33831 | 114.94228 | 9069 ft | 383 kts | 0° |
| 2026-05-04 07:15 | -9.31181 | 114.94137 | 8602 ft | 377 kts | 0° |
| 2026-05-04 07:15 | -9.28581 | 114.94047 | 8148 ft | 372 kts | 360° |
| 2026-05-04 07:15 | -9.26015 | 114.93944 | 7702 ft | 366 kts | 360° |
| 2026-05-04 07:15 | -9.23486 | 114.93830 | 7269 ft | 363 kts | 359° |
| 2026-05-04 07:16 | -9.20968 | 114.93708 | 6841 ft | 360 kts | 359° |
| 2026-05-04 07:16 | -9.18472 | 114.93582 | 6390 ft | 359 kts | 359° |
| 2026-05-04 07:16 | -9.15986 | 114.93455 | 5946 ft | 356 kts | 359° |
| 2026-05-04 07:16 | -9.13516 | 114.93328 | 5504 ft | 354 kts | 359° |
| 2026-05-04 07:17 | -9.11066 | 114.93202 | 5072 ft | 350 kts | 359° |
| 2026-05-04 07:17 | -9.08692 | 114.93078 | 4642 ft | 335 kts | 359° |
| 2026-05-04 07:17 | -9.06414 | 114.92960 | 4206 ft | 321 kts | 360° |
| 2026-05-04 07:17 | -9.04251 | 114.92895 | 4043 ft | 300 kts | 8° |
| 2026-05-04 07:18 | -9.02334 | 114.93454 | 3850 ft | 286 kts | 31° |
| 2026-05-04 07:18 | -9.00803 | 114.94662 | 3612 ft | 276 kts | 51° |
| 2026-05-04 07:18 | -8.99782 | 114.96263 | 3379 ft | 268 kts | 69° |
| 2026-05-04 07:18 | -8.99338 | 114.98051 | 3215 ft | 259 kts | 86° |
| 2026-05-04 07:19 | -8.99480 | 114.99830 | 3095 ft | 250 kts | 104° |
| 2026-05-04 07:19 | -9.00156 | 115.01409 | 3049 ft | 243 kts | 122° |
| 2026-05-04 07:19 | -9.01275 | 115.02690 | 3005 ft | 246 kts | 137° |
| 2026-05-04 07:19 | -9.02759 | 115.03723 | 3019 ft | 278 kts | 150° |
| 2026-05-04 07:20 | -9.04736 | 115.04274 | 3014 ft | 313 kts | 172° |
| 2026-05-04 07:20 | -9.06939 | 115.04409 | 2998 ft | 318 kts | 174° |
| 2026-05-04 07:20 | -9.09144 | 115.04522 | 2984 ft | 316 kts | 174° |
| 2026-05-04 07:20 | -9.11337 | 115.04633 | 2984 ft | 315 kts | 174° |
| 2026-05-04 07:22 | -9.16947 | 114.94567 | 2990 ft | 332 kts | 323° |
| 2026-05-04 07:22 | -9.14950 | 114.93447 | 2997 ft | 328 kts | 343° |
| 2026-05-04 07:23 | -9.12734 | 114.93030 | 3003 ft | 324 kts | 358° |
| 2026-05-04 07:23 | -9.10480 | 114.92892 | 2995 ft | 325 kts | 360° |
| 2026-05-04 07:23 | -9.08219 | 114.92792 | 2994 ft | 325 kts | 0° |
| 2026-05-04 07:23 | -9.05957 | 114.92696 | 2981 ft | 325 kts | 0° |
| 2026-05-04 07:24 | -9.03698 | 114.92594 | 2985 ft | 325 kts | 0° |
| 2026-05-04 07:24 | -9.01446 | 114.92484 | 2987 ft | 322 kts | 0° |
| 2026-05-04 07:24 | -8.99243 | 114.92370 | 2974 ft | 311 kts | 0° |
| 2026-05-04 07:24 | -8.97138 | 114.92257 | 2966 ft | 295 kts | 0° |
| 2026-05-04 07:25 | -8.95143 | 114.92148 | 2983 ft | 280 kts | 0° |
| 2026-05-04 07:26 | -8.82398 | 114.91463 | 2993 ft | 258 kts | 360° |
| 2026-05-04 07:27 | -8.80610 | 114.91366 | 2993 ft | 257 kts | 359° |
| 2026-05-04 07:27 | -8.78852 | 114.91281 | 2991 ft | 256 kts | 4° |
| 2026-05-04 07:27 | -8.77180 | 114.91750 | 3004 ft | 247 kts | 38° |
| 2026-05-04 07:27 | -8.76191 | 114.93033 | 2991 ft | 222 kts | 74° |
| 2026-05-04 07:28 | -8.75908 | 114.94477 | 2984 ft | 199 kts | 82° |
| 2026-05-04 07:28 | -8.75733 | 114.95810 | 2965 ft | 182 kts | 86° |
| 2026-05-04 07:28 | -8.75639 | 114.97055 | 2978 ft | 179 kts | 87° |
| 2026-05-04 07:28 | -8.75572 | 114.98311 | 2992 ft | 181 kts | 88° |
| 2026-05-04 07:29 | -8.75515 | 114.99582 | 2963 ft | 180 kts | 89° |
| 2026-05-04 07:29 | -8.75463 | 115.00851 | 2761 ft | 180 kts | 89° |
| 2026-05-04 07:29 | -8.75413 | 115.02103 | 2514 ft | 177 kts | 89° |
| 2026-05-04 07:29 | -8.75364 | 115.03348 | 2302 ft | 179 kts | 89° |
| 2026-05-04 07:30 | -8.75315 | 115.04614 | 2082 ft | 180 kts | 89° |
| 2026-05-04 07:30 | -8.75265 | 115.05871 | 1831 ft | 178 kts | 89° |
| 2026-05-04 07:30 | -8.75217 | 115.07079 | 1609 ft | 165 kts | 90° |
| 2026-05-04 07:30 | -8.75174 | 115.08204 | 1407 ft | 156 kts | 89° |
| 2026-05-04 07:31 | -8.75133 | 115.09257 | 1212 ft | 148 kts | 89° |
| 2026-05-04 07:31 | -8.75093 | 115.10269 | 1042 ft | 143 kts | 89° |
| 2026-05-04 07:33 | -8.74825 | 115.17081 | 27 ft | 83 kts | 88° |
| 2026-05-04 07:33 | -8.74811 | 115.17527 | 28 ft | 52 kts | 88° |
| 2026-05-04 07:33 | -8.74799 | 115.17743 | 27 ft | 15 kts | 77° |
| 2026-05-04 07:33 | -8.74726 | 115.17788 | 29 ft | 13 kts | 356° |
| 2026-05-04 07:34 | -8.74659 | 115.17777 | 31 ft | 9 kts | 329° |
| 2026-05-04 07:34 | -8.74637 | 115.17724 | 32 ft | 8 kts | 270° |
| 2026-05-04 07:34 | -8.74640 | 115.17665 | 32 ft | 8 kts | 267° |
| 2026-05-04 07:34 | -8.74642 | 115.17608 | 31 ft | 8 kts | 268° |
| 2026-05-04 07:35 | -8.74644 | 115.17553 | 31 ft | 8 kts | 268° |
| 2026-05-04 07:35 | -8.74646 | 115.17491 | 31 ft | 10 kts | 268° |
| 2026-05-04 07:35 | -8.74650 | 115.17405 | 31 ft | 14 kts | 268° |
| 2026-05-04 07:35 | -8.74655 | 115.17294 | 31 ft | 17 kts | 267° |
| 2026-05-04 07:36 | -8.74660 | 115.17160 | 31 ft | 21 kts | 268° |
| 2026-05-04 07:36 | -8.74666 | 115.17024 | 31 ft | 16 kts | 267° |
| 2026-05-04 07:38 | -8.74573 | 115.16673 | 32 ft | 3 kts | 358° |
| 2026-05-04 07:38 | -8.74555 | 115.16672 | 32 ft | 1 kts | 358° |
| 2026-05-04 07:38 | -8.74551 | 115.16672 | 32 ft | 0 kts | 358° |